• Join FlightAware (Why Join?)
  • Login
  • US Flag 
08:22PM EDT


 

Airport Tracker/Info


-or-


 

Live Flight TrackerFlight Track Log ✈ CSJ405 ✈ 26-Apr-2013 ✈ CYHM - CYMX

Flight Track Log - Related Links

Times and Time Zones

All times are in EDT time to prevent confusion due to time zone crossing. See the CSJ405 flight status page for this flight to view local times or setup timezone preferences in your user account.

Time Position Orientation Groundspeed Altitude Reporting Facility
EDT Latitude Longitude Course Direction KTS MPH feet Rate Location/Type
02:02AM 43.1667 -79.9000 360° North 40 46 800  Level Toronto Center
02:03AM 43.1667 -79.9000 360° North 30 35 800  Level Toronto Center
02:04AM 43.1667 -79.9000 236° Southwest 20 23 800 240 Level Toronto Center
02:05AM 43.1500 -79.9333 236° Southwest 90 104 1,400 600 Climbing Toronto Center
02:06AM 43.1333 -79.9500 216° Southwest 90 104 2,000 600 Climbing Toronto Center
02:07AM 43.1167 -79.9833 236° Southwest 110 127 2,700 660 Climbing Toronto Center
02:08AM 43.0833 -80.0000 200° South 110 127 3,400 660 Climbing Toronto Center
02:09AM 43.0667 -79.9500 115° Southeast 130 150 4,100 660 Climbing Toronto Center
02:10AM 43.1000 -79.9333 20° North 120 138 4,800 660 Climbing Toronto Center
02:11AM 43.1167 -79.9000 56° Northeast 120 138 5,500 780 Climbing Toronto Center
02:12AM 43.1500 -79.8833 20° North 120 138 6,400 780 Climbing Toronto Center
02:14AM 43.1833 -79.8000 61° Northeast 140 161 7,900 720 Climbing Toronto Center
02:15AM 43.2167 -79.7500 48° Northeast 140 161 8,600 660 Climbing Toronto Center
02:16AM 43.2333 -79.7000 65° Northeast 140 161 9,300 720 Climbing Toronto Center
02:17AM 43.2500 -79.6500 65° Northeast 140 161 10,100 660 Climbing Toronto Center
02:18AM 43.2667 -79.6167 56° Northeast 150 173 10,700 480 Climbing Toronto Center
02:19AM 43.3000 -79.5667 47° Northeast 150 173 11,100 120 Climbing Toronto Center
02:20AM 43.3167 -79.5000 71° East 170 196 11,000 -60 Descending Toronto Center
02:21AM 43.3500 -79.4500 47° Northeast 180 207 11,000  Level Toronto Center
02:22AM 43.3833 -79.3833 55° Northeast 180 207 11,000  Level Toronto Center
02:23AM 43.4000 -79.3333 65° Northeast 180 207 11,000  Level Toronto Center
02:24AM 43.4333 -79.2667 55° Northeast 180 207 11,000  Level Toronto Center
02:25AM 43.4667 -79.2167 47° Northeast 180 207 11,000  Level Toronto Center
02:26AM 43.4833 -79.1500 71° East 180 207 11,000  Level Toronto Center
02:27AM 43.5167 -79.0833 55° Northeast 180 207 11,000  Level Toronto Center
02:28AM 43.5500 -79.0333 47° Northeast 180 207 11,000  Level Toronto Center
02:29AM 43.5667 -78.9667 71° East 180 207 11,000  Level Toronto Center
02:30AM 43.6000 -78.9167 47° Northeast 190 219 11,000  Level Toronto Center
02:31AM 43.6333 -78.8500 55° Northeast 190 219 11,000  Level Toronto Center
02:32AM 43.6500 -78.7833 71° East 190 219 11,000  Level Toronto Center
02:33AM 43.6833 -78.7333 47° Northeast 190 219 11,000  Level Toronto Center
02:34AM 43.7167 -78.6667 55° Northeast 190 219 11,000  Level Toronto Center
02:35AM 43.7500 -78.6000 55° Northeast 190 219 11,000  Level Toronto Center
02:36AM 43.7667 -78.5500 65° Northeast 190 219 11,000  Level Toronto Center
02:37AM 43.7833 -78.4833 71° East 190 219 11,000  Level Toronto Center
02:38AM 43.8167 -78.4333 47° Northeast 190 219 11,000  Level Toronto Center
02:39AM 43.8333 -78.3667 71° East 190 219 11,000  Level Toronto Center
02:40AM 43.8667 -78.2833 61° Northeast 190 219 11,000  Level Toronto Center
02:41AM 43.9000 -78.2167 55° Northeast 190 219 11,000  Level Toronto Center
02:42AM 43.9333 -78.1667 47° Northeast 190 219 11,000  Level Toronto Center
02:43AM 43.9500 -78.1000 71° East 200 230 11,000  Level Toronto Center
02:44AM 43.9833 -78.0333 55° Northeast 190 219 11,000  Level Toronto Center
02:45AM 44.0167 -77.9833 47° Northeast 190 219 11,000  Level Toronto Center
02:46AM 44.0500 -77.9167 55° Northeast 190 219 11,000  Level Toronto Center
02:47AM 44.0667 -77.8500 71° East 190 219 11,000  Level Toronto Center
02:48AM 44.1000 -77.8000 47° Northeast 190 219 11,000  Level Toronto Center
02:49AM 44.1333 -77.7333 55° Northeast 190 219 11,000  Level Toronto Center
02:50AM 44.1667 -77.6500 61° Northeast 190 219 11,000  Level Toronto Center
02:51AM 44.1833 -77.5833 71° East 190 219 11,000  Level Toronto Center
02:52AM 44.2167 -77.5333 47° Northeast 190 219 11,000  Level Toronto Center
02:53AM 44.2500 -77.4667 55° Northeast 190 219 11,000  Level Toronto Center
02:54AM 44.2833 -77.4000 55° Northeast 200 230 11,000  Level Toronto Center
02:55AM 44.2833 -77.3500 90° East 190 219 11,000  Level Toronto Center
02:56AM 44.3167 -77.2833 55° Northeast 200 230 11,000  Level Toronto Center
02:57AM 44.3500 -77.2000 61° Northeast 190 219 11,000  Level Toronto Center
02:58AM 44.3833 -77.1333 55° Northeast 190 219 11,000 -120 Level Toronto Center
02:58AM 44.4000 -77.1333 360° North 190 219 10,900 -120 Descending Montreal Center
02:59AM 44.4333 -77.0667 55° Northeast 190 219 10,900  Level Montreal Center
03:00AM 44.4500 -77.0000 71° East 190 219 10,900  Level Montreal Center
03:01AM 44.4833 -76.9500 47° Northeast 200 230 10,900  Level Montreal Center
03:02AM 44.5000 -76.8833 71° East 190 219 10,900  Level Montreal Center
03:03AM 44.5333 -76.8167 55° Northeast 190 219 10,900  Level Montreal Center
03:04AM 44.5667 -76.7667 47° Northeast 190 219 10,900  Level Montreal Center
03:05AM 44.5833 -76.7000 71° East 190 219 10,900  Level Montreal Center
03:06AM 44.6167 -76.6333 55° Northeast 190 219 11,000 60 Climbing Montreal Center
03:07AM 44.6167 -76.5833 90° East 190 219 11,000  Level Toronto Center
03:08AM 44.6500 -76.5167 55° Northeast 190 219 11,000  Level Toronto Center
03:09AM 44.6833 -76.4500 55° Northeast 190 219 11,000  Level Toronto Center
03:10AM 44.7000 -76.4000 65° Northeast 190 219 11,000  Level Toronto Center
03:10AM 44.7167 -76.3667 55° Northeast 190 219 11,000  Level Montreal Center
03:11AM 44.7500 -76.3167 47° Northeast 190 219 11,000  Level Montreal Center
03:12AM 44.7667 -76.2500 71° East 190 219 11,000  Level Montreal Center
03:13AM 44.8000 -76.1833 55° Northeast 190 219 11,000  Level Montreal Center
03:14AM 44.8167 -76.1333 65° Northeast 190 219 11,000  Level Montreal Center
03:15AM 44.8500 -76.0667 55° Northeast 190 219 11,000  Level Montreal Center
03:16AM 44.8833 -76.0000 55° Northeast 190 219 11,000  Level Montreal Center
03:17AM 44.9000 -75.9500 65° Northeast 180 207 11,000  Level Montreal Center
03:18AM 44.9333 -75.8667 61° Northeast 180 207 11,000  Level Montreal Center
03:19AM 44.9500 -75.8000 71° East 190 219 11,000  Level Montreal Center
03:20AM 44.9833 -75.7500 47° Northeast 190 219 11,000  Level Montreal Center
03:21AM 45.0000 -75.6833 71° East 190 219 11,000  Level Montreal Center
03:22AM 45.0167 -75.6167 71° East 190 219 11,000  Level Montreal Center
03:23AM 45.0500 -75.5333 60° Northeast 180 207 11,100  Climbing Montreal Center
03:24AM 45.0667 -75.5000 55° Northeast 180 207 11,100  Level Montreal Center
03:25AM 45.1000 -75.4167 60° Northeast 180 207 11,100 -180 Level Montreal Center
03:26AM 45.1167 -75.3500 70° East 190 219 10,800 -480 Descending Montreal Center
03:27AM 45.1500 -75.2833 55° Northeast 200 230 10,200 -600 Descending Montreal Center
03:28AM 45.1667 -75.2000 74° East 200 230 9,700 -540 Descending Montreal Center
03:29AM 45.2000 -75.1333 55° Northeast 200 230 9,200 -540 Descending Montreal Center
03:30AM 45.2167 -75.0667 70° East 200 230 8,700 -540 Descending Montreal Center
03:31AM 45.2500 -75.0000 55° Northeast 200 230 8,200 -480 Descending Montreal Center
03:32AM 45.2667 -74.9167 74° East 200 230 7,800 -600 Descending Montreal Center
03:33AM 45.3000 -74.8500 55° Northeast 200 230 7,000 -660 Descending Montreal Center
03:34AM 45.3167 -74.7833 70° East 190 219 6,500 -600 Descending Montreal Center
03:35AM 45.3500 -74.7333 47° Northeast 190 219 5,900 -600 Descending Montreal Center
03:36AM 45.3667 -74.6500 74° East 180 207 5,400 -600 Descending Montreal Center
03:37AM 45.3833 -74.5833 70° East 170 196 4,800 -660 Descending Montreal Center
03:38AM 45.4167 -74.5333 46° Northeast 170 196 4,100 -720 Descending Montreal Center
03:39AM 45.4333 -74.4667 70° East 180 207 3,400 -540 Descending Montreal Center
03:40AM 45.4500 -74.4167 65° Northeast 170 196 3,100 -180 Descending Montreal Center
03:41AM 45.4833 -74.3500 54° Northeast 170 196 3,100  Level Montreal Center
03:42AM 45.5000 -74.3000 65° Northeast 160 184 3,100 -120 Level Montreal Center
03:43AM 45.5167 -74.2167 74° East 160 184 2,900 -60 Descending Montreal Center
03:44AM 45.5500 -74.1667 46° Northeast 160 184 3,000 -120 Climbing Montreal Center
03:45AM 45.5833 -74.1500 19° North 160 184 2,700 -600 Descending Montreal Center
03:46AM 45.6000 -74.1000 65° Northeast 140 161 1,900 -660 Descending Montreal Center
03:47AM 45.6333 -74.0667 35° Northeast 100 115 1,400 -540 Descending Montreal Center
03:48AM 45.6500 -74.0500 35° Northeast 70 81 900 -420 Descending Montreal Center
03:49AM 45.6667 -74.0333 35° Northeast 70 81 600 -300 Descending Montreal Center
03:50AM 45.6500 -74.0000 126° Southeast 70 81 400 -240 Descending Montreal Center